sensor_id;sensor_type;location;lat;lon;timestamp;P1;durP1;ratioP1;P2;durP2;ratioP2
18338;SDS011;9295;44.484;11.240;2022-11-20T00:01:33;78.83;;;42.10;;
18338;SDS011;9295;44.484;11.240;2022-11-20T00:04:01;82.90;;;39.47;;
18338;SDS011;9295;44.484;11.240;2022-11-20T00:06:30;77.13;;;40.20;;
18338;SDS011;9295;44.484;11.240;2022-11-20T00:09:00;86.87;;;41.37;;
18338;SDS011;9295;44.484;11.240;2022-11-20T00:11:29;92.97;;;39.70;;
18338;SDS011;9295;44.484;11.240;2022-11-20T00:13:59;77.83;;;39.57;;
18338;SDS011;9295;44.484;11.240;2022-11-20T00:16:30;74.83;;;38.17;;
18338;SDS011;9295;44.484;11.240;2022-11-20T00:18:59;81.80;;;39.27;;
18338;SDS011;9295;44.484;11.240;2022-11-20T00:21:28;74.57;;;38.17;;
18338;SDS011;9295;44.484;11.240;2022-11-20T00:23:57;73.37;;;37.40;;
18338;SDS011;9295;44.484;11.240;2022-11-20T00:26:27;80.10;;;38.93;;
18338;SDS011;9295;44.484;11.240;2022-11-20T00:28:57;78.50;;;39.37;;
18338;SDS011;9295;44.484;11.240;2022-11-20T00:31:27;83.20;;;39.30;;
18338;SDS011;9295;44.484;11.240;2022-11-20T00:33:56;68.70;;;37.50;;
18338;SDS011;9295;44.484;11.240;2022-11-20T00:36:25;70.93;;;38.07;;
18338;SDS011;9295;44.484;11.240;2022-11-20T00:38:55;70.33;;;38.93;;
18338;SDS011;9295;44.484;11.240;2022-11-20T00:41:26;72.93;;;38.30;;
18338;SDS011;9295;44.484;11.240;2022-11-20T00:43:56;75.50;;;36.93;;
18338;SDS011;9295;44.484;11.240;2022-11-20T00:46:25;71.07;;;38.10;;
18338;SDS011;9295;44.484;11.240;2022-11-20T00:48:54;74.87;;;37.03;;
18338;SDS011;9295;44.484;11.240;2022-11-20T00:51:24;67.77;;;36.73;;
18338;SDS011;9295;44.484;11.240;2022-11-20T00:53:54;76.37;;;37.70;;
18338;SDS011;9295;44.484;11.240;2022-11-20T00:56:24;74.90;;;35.43;;
18338;SDS011;9295;44.484;11.240;2022-11-20T00:58:53;71.40;;;36.47;;
18338;SDS011;9295;44.484;11.240;2022-11-20T01:01:22;74.37;;;36.97;;
18338;SDS011;9295;44.484;11.240;2022-11-20T01:03:55;77.87;;;38.67;;
18338;SDS011;9295;44.484;11.240;2022-11-20T01:06:26;68.97;;;36.83;;
18338;SDS011;9295;44.484;11.240;2022-11-20T01:08:56;71.17;;;36.80;;
18338;SDS011;9295;44.484;11.240;2022-11-20T01:11:27;77.40;;;35.93;;
18338;SDS011;9295;44.484;11.240;2022-11-20T01:13:59;73.73;;;36.20;;
18338;SDS011;9295;44.484;11.240;2022-11-20T01:16:29;67.43;;;36.83;;
18338;SDS011;9295;44.484;11.240;2022-11-20T01:18:59;69.37;;;36.83;;
18338;SDS011;9295;44.484;11.240;2022-11-20T01:21:31;66.43;;;36.93;;
18338;SDS011;9295;44.484;11.240;2022-11-20T01:24:00;65.13;;;34.23;;
18338;SDS011;9295;44.484;11.240;2022-11-20T01:26:29;76.33;;;36.50;;
18338;SDS011;9295;44.484;11.240;2022-11-20T01:29:01;66.50;;;34.57;;
18338;SDS011;9295;44.484;11.240;2022-11-20T01:31:30;68.23;;;35.60;;
18338;SDS011;9295;44.484;11.240;2022-11-20T01:34:00;69.57;;;36.93;;
18338;SDS011;9295;44.484;11.240;2022-11-20T01:36:31;71.50;;;35.97;;
18338;SDS011;9295;44.484;11.240;2022-11-20T01:39:00;66.97;;;35.07;;
18338;SDS011;9295;44.484;11.240;2022-11-20T01:41:31;64.20;;;34.57;;
18338;SDS011;9295;44.484;11.240;2022-11-20T01:44:19;58.00;;;33.07;;
18338;SDS011;9295;44.484;11.240;2022-11-20T01:46:52;66.07;;;36.33;;
18338;SDS011;9295;44.484;11.240;2022-11-20T01:49:25;59.27;;;33.00;;
18338;SDS011;9295;44.484;11.240;2022-11-20T01:52:00;70.70;;;35.03;;
18338;SDS011;9295;44.484;11.240;2022-11-20T01:54:33;67.43;;;36.47;;
18338;SDS011;9295;44.484;11.240;2022-11-20T01:57:05;64.83;;;34.03;;
18338;SDS011;9295;44.484;11.240;2022-11-20T01:59:37;70.30;;;35.50;;
18338;SDS011;9295;44.484;11.240;2022-11-20T02:02:08;79.07;;;34.07;;
18338;SDS011;9295;44.484;11.240;2022-11-20T02:04:37;60.77;;;35.43;;
18338;SDS011;9295;44.484;11.240;2022-11-20T02:07:05;67.30;;;36.07;;
18338;SDS011;9295;44.484;11.240;2022-11-20T02:09:35;63.33;;;34.37;;
18338;SDS011;9295;44.484;11.240;2022-11-20T02:12:03;68.60;;;35.07;;
18338;SDS011;9295;44.484;11.240;2022-11-20T02:14:53;59.77;;;34.07;;
18338;SDS011;9295;44.484;11.240;2022-11-20T02:17:21;69.37;;;35.00;;
18338;SDS011;9295;44.484;11.240;2022-11-20T02:19:50;69.80;;;35.50;;
18338;SDS011;9295;44.484;11.240;2022-11-20T02:22:19;71.53;;;34.93;;
18338;SDS011;9295;44.484;11.240;2022-11-20T02:24:53;68.80;;;35.93;;
18338;SDS011;9295;44.484;11.240;2022-11-20T02:27:21;67.23;;;36.30;;
18338;SDS011;9295;44.484;11.240;2022-11-20T02:29:50;63.50;;;34.10;;
18338;SDS011;9295;44.484;11.240;2022-11-20T02:32:22;67.47;;;35.47;;
18338;SDS011;9295;44.484;11.240;2022-11-20T02:34:52;65.80;;;35.37;;
18338;SDS011;9295;44.484;11.240;2022-11-20T02:37:20;61.87;;;36.50;;
18338;SDS011;9295;44.484;11.240;2022-11-20T02:39:49;70.70;;;37.20;;
18338;SDS011;9295;44.484;11.240;2022-11-20T02:42:20;66.93;;;36.07;;
18338;SDS011;9295;44.484;11.240;2022-11-20T02:44:48;62.03;;;36.10;;
18338;SDS011;9295;44.484;11.240;2022-11-20T02:47:17;62.70;;;35.60;;
18338;SDS011;9295;44.484;11.240;2022-11-20T02:49:45;68.80;;;37.43;;
18338;SDS011;9295;44.484;11.240;2022-11-20T02:52:13;71.77;;;36.70;;
18338;SDS011;9295;44.484;11.240;2022-11-20T02:54:42;69.40;;;36.83;;
18338;SDS011;9295;44.484;11.240;2022-11-20T02:57:10;78.97;;;37.00;;
18338;SDS011;9295;44.484;11.240;2022-11-20T02:59:40;71.87;;;37.40;;
18338;SDS011;9295;44.484;11.240;2022-11-20T03:02:08;65.93;;;37.17;;
18338;SDS011;9295;44.484;11.240;2022-11-20T03:04:37;72.83;;;37.17;;
18338;SDS011;9295;44.484;11.240;2022-11-20T03:07:07;61.90;;;34.57;;
18338;SDS011;9295;44.484;11.240;2022-11-20T03:09:36;73.73;;;36.27;;
18338;SDS011;9295;44.484;11.240;2022-11-20T03:12:05;71.90;;;38.77;;
18338;SDS011;9295;44.484;11.240;2022-11-20T03:14:34;64.53;;;34.73;;
18338;SDS011;9295;44.484;11.240;2022-11-20T03:17:03;71.30;;;35.73;;
18338;SDS011;9295;44.484;11.240;2022-11-20T03:19:32;64.03;;;35.80;;
18338;SDS011;9295;44.484;11.240;2022-11-20T03:22:00;61.07;;;33.80;;
18338;SDS011;9295;44.484;11.240;2022-11-20T03:24:29;65.23;;;34.10;;
18338;SDS011;9295;44.484;11.240;2022-11-20T03:26:57;61.97;;;33.70;;
18338;SDS011;9295;44.484;11.240;2022-11-20T03:29:26;62.47;;;34.07;;
18338;SDS011;9295;44.484;11.240;2022-11-20T03:31:54;61.23;;;33.63;;
18338;SDS011;9295;44.484;11.240;2022-11-20T03:34:24;59.33;;;33.30;;
18338;SDS011;9295;44.484;11.240;2022-11-20T03:36:53;68.77;;;34.63;;
18338;SDS011;9295;44.484;11.240;2022-11-20T03:39:21;61.07;;;32.10;;
18338;SDS011;9295;44.484;11.240;2022-11-20T03:41:50;61.67;;;34.40;;
18338;SDS011;9295;44.484;11.240;2022-11-20T03:44:20;67.57;;;34.90;;
18338;SDS011;9295;44.484;11.240;2022-11-20T03:46:49;62.50;;;35.10;;
18338;SDS011;9295;44.484;11.240;2022-11-20T03:49:17;71.37;;;36.47;;
18338;SDS011;9295;44.484;11.240;2022-11-20T03:51:47;83.70;;;37.97;;
18338;SDS011;9295;44.484;11.240;2022-11-20T03:54:16;70.97;;;37.70;;
18338;SDS011;9295;44.484;11.240;2022-11-20T03:56:44;70.20;;;37.90;;
18338;SDS011;9295;44.484;11.240;2022-11-20T03:59:13;68.50;;;38.37;;
18338;SDS011;9295;44.484;11.240;2022-11-20T04:01:41;63.10;;;34.67;;
18338;SDS011;9295;44.484;11.240;2022-11-20T04:04:15;73.17;;;37.00;;
18338;SDS011;9295;44.484;11.240;2022-11-20T04:06:43;69.83;;;38.00;;
18338;SDS011;9295;44.484;11.240;2022-11-20T04:09:13;77.07;;;39.90;;
18338;SDS011;9295;44.484;11.240;2022-11-20T04:11:42;69.27;;;38.60;;
18338;SDS011;9295;44.484;11.240;2022-11-20T04:14:11;70.83;;;39.03;;
18338;SDS011;9295;44.484;11.240;2022-11-20T04:16:41;73.57;;;38.20;;
18338;SDS011;9295;44.484;11.240;2022-11-20T04:19:11;77.13;;;38.90;;
18338;SDS011;9295;44.484;11.240;2022-11-20T04:21:41;67.07;;;36.97;;
18338;SDS011;9295;44.484;11.240;2022-11-20T04:24:10;64.83;;;35.23;;
18338;SDS011;9295;44.484;11.240;2022-11-20T04:26:40;70.27;;;38.67;;
18338;SDS011;9295;44.484;11.240;2022-11-20T04:29:10;67.83;;;35.30;;
18338;SDS011;9295;44.484;11.240;2022-11-20T04:31:39;70.33;;;35.97;;
18338;SDS011;9295;44.484;11.240;2022-11-20T04:34:07;71.10;;;36.83;;
18338;SDS011;9295;44.484;11.240;2022-11-20T04:36:39;72.17;;;37.27;;
18338;SDS011;9295;44.484;11.240;2022-11-20T04:39:11;78.50;;;39.63;;
18338;SDS011;9295;44.484;11.240;2022-11-20T04:41:42;72.10;;;37.47;;
18338;SDS011;9295;44.484;11.240;2022-11-20T04:44:11;71.40;;;37.57;;
18338;SDS011;9295;44.484;11.240;2022-11-20T04:46:40;71.40;;;37.90;;
18338;SDS011;9295;44.484;11.240;2022-11-20T04:49:10;73.77;;;39.20;;
18338;SDS011;9295;44.484;11.240;2022-11-20T04:51:39;73.37;;;39.60;;
18338;SDS011;9295;44.484;11.240;2022-11-20T04:54:08;71.20;;;39.70;;
18338;SDS011;9295;44.484;11.240;2022-11-20T04:56:38;73.00;;;40.00;;
18338;SDS011;9295;44.484;11.240;2022-11-20T04:59:08;80.83;;;38.90;;
18338;SDS011;9295;44.484;11.240;2022-11-20T05:01:36;76.50;;;40.00;;
18338;SDS011;9295;44.484;11.240;2022-11-20T05:04:05;67.37;;;38.77;;
18338;SDS011;9295;44.484;11.240;2022-11-20T05:06:33;76.47;;;40.57;;
18338;SDS011;9295;44.484;11.240;2022-11-20T05:09:02;70.73;;;39.47;;
18338;SDS011;9295;44.484;11.240;2022-11-20T05:11:31;76.57;;;40.17;;
18338;SDS011;9295;44.484;11.240;2022-11-20T05:13:59;83.03;;;40.60;;
18338;SDS011;9295;44.484;11.240;2022-11-20T05:16:29;80.07;;;40.50;;
18338;SDS011;9295;44.484;11.240;2022-11-20T05:18:58;73.43;;;39.20;;
18338;SDS011;9295;44.484;11.240;2022-11-20T05:21:26;84.50;;;42.40;;
18338;SDS011;9295;44.484;11.240;2022-11-20T05:23:55;77.30;;;41.97;;
18338;SDS011;9295;44.484;11.240;2022-11-20T05:26:23;85.63;;;43.03;;
18338;SDS011;9295;44.484;11.240;2022-11-20T05:28:51;83.10;;;42.60;;
18338;SDS011;9295;44.484;11.240;2022-11-20T05:31:21;78.30;;;41.07;;
18338;SDS011;9295;44.484;11.240;2022-11-20T05:33:55;86.53;;;42.37;;
18338;SDS011;9295;44.484;11.240;2022-11-20T05:36:24;81.27;;;43.87;;
18338;SDS011;9295;44.484;11.240;2022-11-20T05:38:53;81.77;;;43.90;;
18338;SDS011;9295;44.484;11.240;2022-11-20T05:41:27;83.43;;;43.37;;
18338;SDS011;9295;44.484;11.240;2022-11-20T05:43:56;78.07;;;43.20;;
18338;SDS011;9295;44.484;11.240;2022-11-20T05:46:26;75.70;;;40.90;;
18338;SDS011;9295;44.484;11.240;2022-11-20T05:48:57;75.20;;;42.47;;
18338;SDS011;9295;44.484;11.240;2022-11-20T05:51:25;80.23;;;42.83;;
18338;SDS011;9295;44.484;11.240;2022-11-20T05:53:55;84.03;;;41.03;;
18338;SDS011;9295;44.484;11.240;2022-11-20T05:56:25;85.70;;;44.03;;
18338;SDS011;9295;44.484;11.240;2022-11-20T05:58:53;73.90;;;39.80;;
18338;SDS011;9295;44.484;11.240;2022-11-20T06:01:23;80.47;;;43.33;;
18338;SDS011;9295;44.484;11.240;2022-11-20T06:03:52;88.10;;;44.37;;
18338;SDS011;9295;44.484;11.240;2022-11-20T06:06:23;76.97;;;42.00;;
18338;SDS011;9295;44.484;11.240;2022-11-20T06:08:52;80.23;;;42.53;;
18338;SDS011;9295;44.484;11.240;2022-11-20T06:11:21;76.90;;;41.70;;
18338;SDS011;9295;44.484;11.240;2022-11-20T06:13:50;84.30;;;44.40;;
18338;SDS011;9295;44.484;11.240;2022-11-20T06:16:19;89.87;;;47.73;;
18338;SDS011;9295;44.484;11.240;2022-11-20T06:18:48;78.07;;;41.67;;
18338;SDS011;9295;44.484;11.240;2022-11-20T06:21:17;93.13;;;39.60;;
18338;SDS011;9295;44.484;11.240;2022-11-20T06:23:49;73.67;;;40.20;;
18338;SDS011;9295;44.484;11.240;2022-11-20T06:26:20;70.67;;;39.03;;
18338;SDS011;9295;44.484;11.240;2022-11-20T06:28:49;86.87;;;41.23;;
18338;SDS011;9295;44.484;11.240;2022-11-20T06:31:19;68.80;;;39.40;;
18338;SDS011;9295;44.484;11.240;2022-11-20T06:33:48;75.60;;;39.57;;
18338;SDS011;9295;44.484;11.240;2022-11-20T06:36:19;67.60;;;38.70;;
18338;SDS011;9295;44.484;11.240;2022-11-20T06:38:50;70.27;;;38.17;;
18338;SDS011;9295;44.484;11.240;2022-11-20T06:41:19;74.87;;;38.40;;
18338;SDS011;9295;44.484;11.240;2022-11-20T06:43:49;75.50;;;41.07;;
18338;SDS011;9295;44.484;11.240;2022-11-20T06:46:18;72.30;;;39.40;;
18338;SDS011;9295;44.484;11.240;2022-11-20T06:48:47;81.73;;;40.67;;
18338;SDS011;9295;44.484;11.240;2022-11-20T06:51:16;72.40;;;39.00;;
18338;SDS011;9295;44.484;11.240;2022-11-20T06:53:45;72.80;;;40.60;;
18338;SDS011;9295;44.484;11.240;2022-11-20T06:56:15;72.17;;;37.70;;
18338;SDS011;9295;44.484;11.240;2022-11-20T06:58:43;66.37;;;37.03;;
18338;SDS011;9295;44.484;11.240;2022-11-20T07:01:12;68.97;;;38.00;;
18338;SDS011;9295;44.484;11.240;2022-11-20T07:03:41;61.60;;;36.43;;
18338;SDS011;9295;44.484;11.240;2022-11-20T07:06:12;59.87;;;32.27;;
18338;SDS011;9295;44.484;11.240;2022-11-20T07:08:40;54.53;;;31.40;;
18338;SDS011;9295;44.484;11.240;2022-11-20T07:11:11;53.47;;;31.00;;
18338;SDS011;9295;44.484;11.240;2022-11-20T07:13:41;49.60;;;31.00;;
18338;SDS011;9295;44.484;11.240;2022-11-20T07:16:09;47.80;;;28.40;;
18338;SDS011;9295;44.484;11.240;2022-11-20T07:18:38;42.23;;;26.20;;
18338;SDS011;9295;44.484;11.240;2022-11-20T07:21:11;41.70;;;25.73;;
18338;SDS011;9295;44.484;11.240;2022-11-20T07:23:39;39.90;;;26.20;;
18338;SDS011;9295;44.484;11.240;2022-11-20T07:26:09;37.93;;;24.80;;
18338;SDS011;9295;44.484;11.240;2022-11-20T07:28:38;42.53;;;26.43;;
18338;SDS011;9295;44.484;11.240;2022-11-20T07:31:11;39.20;;;25.77;;
18338;SDS011;9295;44.484;11.240;2022-11-20T07:33:44;38.80;;;25.40;;
18338;SDS011;9295;44.484;11.240;2022-11-20T07:36:13;40.10;;;25.07;;
18338;SDS011;9295;44.484;11.240;2022-11-20T07:38:41;41.83;;;26.27;;
18338;SDS011;9295;44.484;11.240;2022-11-20T07:41:09;43.63;;;24.50;;
18338;SDS011;9295;44.484;11.240;2022-11-20T07:43:38;39.97;;;26.03;;
18338;SDS011;9295;44.484;11.240;2022-11-20T07:46:08;44.73;;;26.80;;
18338;SDS011;9295;44.484;11.240;2022-11-20T07:48:37;42.63;;;27.30;;
18338;SDS011;9295;44.484;11.240;2022-11-20T07:51:05;43.90;;;26.27;;
18338;SDS011;9295;44.484;11.240;2022-11-20T07:53:34;44.67;;;27.70;;
18338;SDS011;9295;44.484;11.240;2022-11-20T07:56:02;41.37;;;26.97;;
18338;SDS011;9295;44.484;11.240;2022-11-20T07:58:31;46.37;;;28.30;;
18338;SDS011;9295;44.484;11.240;2022-11-20T08:01:04;45.60;;;27.53;;
18338;SDS011;9295;44.484;11.240;2022-11-20T08:03:35;43.47;;;26.50;;
18338;SDS011;9295;44.484;11.240;2022-11-20T08:06:05;45.03;;;27.00;;
18338;SDS011;9295;44.484;11.240;2022-11-20T08:08:34;41.00;;;27.47;;
18338;SDS011;9295;44.484;11.240;2022-11-20T08:11:08;41.10;;;25.20;;
18338;SDS011;9295;44.484;11.240;2022-11-20T08:13:56;45.03;;;27.00;;
18338;SDS011;9295;44.484;11.240;2022-11-20T08:16:40;41.93;;;25.93;;
18338;SDS011;9295;44.484;11.240;2022-11-20T08:19:10;47.30;;;28.27;;
18338;SDS011;9295;44.484;11.240;2022-11-20T08:21:39;43.67;;;26.47;;
18338;SDS011;9295;44.484;11.240;2022-11-20T08:24:08;46.63;;;28.97;;
18338;SDS011;9295;44.484;11.240;2022-11-20T08:26:37;41.50;;;26.23;;
18338;SDS011;9295;44.484;11.240;2022-11-20T08:29:06;41.47;;;27.07;;
18338;SDS011;9295;44.484;11.240;2022-11-20T08:31:35;43.30;;;25.60;;
18338;SDS011;9295;44.484;11.240;2022-11-20T08:34:03;41.13;;;26.10;;
18338;SDS011;9295;44.484;11.240;2022-11-20T08:36:36;42.90;;;26.20;;
18338;SDS011;9295;44.484;11.240;2022-11-20T08:39:05;45.13;;;25.80;;
18338;SDS011;9295;44.484;11.240;2022-11-20T08:41:33;46.10;;;27.10;;
18338;SDS011;9295;44.484;11.240;2022-11-20T08:44:04;39.47;;;25.30;;
18338;SDS011;9295;44.484;11.240;2022-11-20T08:46:35;45.67;;;26.57;;
18338;SDS011;9295;44.484;11.240;2022-11-20T08:49:04;45.63;;;27.17;;
18338;SDS011;9295;44.484;11.240;2022-11-20T08:51:33;41.83;;;26.70;;
18338;SDS011;9295;44.484;11.240;2022-11-20T08:54:04;43.20;;;25.57;;
18338;SDS011;9295;44.484;11.240;2022-11-20T08:56:33;42.97;;;25.20;;
18338;SDS011;9295;44.484;11.240;2022-11-20T08:59:02;41.33;;;24.87;;
18338;SDS011;9295;44.484;11.240;2022-11-20T09:01:51;40.80;;;24.53;;
18338;SDS011;9295;44.484;11.240;2022-11-20T09:04:19;44.97;;;26.10;;
18338;SDS011;9295;44.484;11.240;2022-11-20T09:06:47;44.23;;;25.40;;
18338;SDS011;9295;44.484;11.240;2022-11-20T09:09:19;42.80;;;25.80;;
18338;SDS011;9295;44.484;11.240;2022-11-20T09:11:48;44.00;;;25.40;;
18338;SDS011;9295;44.484;11.240;2022-11-20T09:14:17;43.13;;;24.53;;
18338;SDS011;9295;44.484;11.240;2022-11-20T09:16:46;47.60;;;27.27;;
18338;SDS011;9295;44.484;11.240;2022-11-20T09:19:14;45.83;;;26.57;;
18338;SDS011;9295;44.484;11.240;2022-11-20T09:22:03;44.37;;;26.20;;
18338;SDS011;9295;44.484;11.240;2022-11-20T09:24:32;49.60;;;25.90;;
18338;SDS011;9295;44.484;11.240;2022-11-20T09:27:02;49.57;;;27.50;;
18338;SDS011;9295;44.484;11.240;2022-11-20T09:29:31;45.27;;;26.57;;
18338;SDS011;9295;44.484;11.240;2022-11-20T09:32:00;48.13;;;26.20;;
18338;SDS011;9295;44.484;11.240;2022-11-20T09:34:28;47.23;;;26.50;;
18338;SDS011;9295;44.484;11.240;2022-11-20T09:36:56;45.70;;;27.33;;
18338;SDS011;9295;44.484;11.240;2022-11-20T09:39:33;45.57;;;25.73;;
18338;SDS011;9295;44.484;11.240;2022-11-20T09:42:10;47.23;;;25.20;;
18338;SDS011;9295;44.484;11.240;2022-11-20T09:45:01;53.57;;;27.20;;
18338;SDS011;9295;44.484;11.240;2022-11-20T09:47:41;46.10;;;27.37;;
18338;SDS011;9295;44.484;11.240;2022-11-20T09:50:31;48.77;;;27.73;;
18338;SDS011;9295;44.484;11.240;2022-11-20T09:53:07;44.70;;;28.03;;
18338;SDS011;9295;44.484;11.240;2022-11-20T09:55:42;53.97;;;29.27;;
18338;SDS011;9295;44.484;11.240;2022-11-20T09:58:13;54.17;;;29.20;;
18338;SDS011;9295;44.484;11.240;2022-11-20T10:00:56;54.27;;;30.63;;
18338;SDS011;9295;44.484;11.240;2022-11-20T10:03:36;56.23;;;33.40;;
18338;SDS011;9295;44.484;11.240;2022-11-20T10:06:10;52.87;;;30.80;;
18338;SDS011;9295;44.484;11.240;2022-11-20T10:08:41;52.90;;;31.50;;
18338;SDS011;9295;44.484;11.240;2022-11-20T10:11:17;64.43;;;32.83;;
18338;SDS011;9295;44.484;11.240;2022-11-20T10:13:56;52.30;;;31.43;;
18338;SDS011;9295;44.484;11.240;2022-11-20T10:16:34;57.60;;;34.17;;
18338;SDS011;9295;44.484;11.240;2022-11-20T10:19:14;59.00;;;33.80;;
18338;SDS011;9295;44.484;11.240;2022-11-20T10:21:55;60.87;;;33.93;;
18338;SDS011;9295;44.484;11.240;2022-11-20T10:24:47;64.30;;;34.90;;
18338;SDS011;9295;44.484;11.240;2022-11-20T10:27:34;65.17;;;34.57;;
18338;SDS011;9295;44.484;11.240;2022-11-20T10:30:16;60.17;;;34.27;;
18338;SDS011;9295;44.484;11.240;2022-11-20T10:32:48;57.70;;;35.50;;
18338;SDS011;9295;44.484;11.240;2022-11-20T10:35:20;60.53;;;35.03;;
18338;SDS011;9295;44.484;11.240;2022-11-20T10:37:55;58.80;;;34.20;;
18338;SDS011;9295;44.484;11.240;2022-11-20T10:40:28;59.50;;;34.90;;
18338;SDS011;9295;44.484;11.240;2022-11-20T10:43:04;54.77;;;33.20;;
18338;SDS011;9295;44.484;11.240;2022-11-20T10:45:48;58.90;;;33.77;;
18338;SDS011;9295;44.484;11.240;2022-11-20T10:48:22;61.80;;;34.97;;
18338;SDS011;9295;44.484;11.240;2022-11-20T10:50:57;70.67;;;35.87;;
18338;SDS011;9295;44.484;11.240;2022-11-20T10:53:40;64.40;;;36.07;;
18338;SDS011;9295;44.484;11.240;2022-11-20T10:56:17;62.80;;;36.90;;
18338;SDS011;9295;44.484;11.240;2022-11-20T10:58:52;63.93;;;34.60;;
18338;SDS011;9295;44.484;11.240;2022-11-20T11:01:30;57.40;;;33.90;;
18338;SDS011;9295;44.484;11.240;2022-11-20T11:03:59;60.23;;;35.47;;
18338;SDS011;9295;44.484;11.240;2022-11-20T11:06:29;60.70;;;35.73;;
18338;SDS011;9295;44.484;11.240;2022-11-20T11:09:02;56.40;;;35.37;;
18338;SDS011;9295;44.484;11.240;2022-11-20T11:11:37;61.90;;;33.50;;
18338;SDS011;9295;44.484;11.240;2022-11-20T11:14:09;55.73;;;34.80;;
18338;SDS011;9295;44.484;11.240;2022-11-20T11:16:48;66.27;;;36.97;;
18338;SDS011;9295;44.484;11.240;2022-11-20T11:19:18;65.80;;;36.70;;
18338;SDS011;9295;44.484;11.240;2022-11-20T11:21:47;64.93;;;35.27;;
18338;SDS011;9295;44.484;11.240;2022-11-20T11:24:21;64.87;;;37.87;;
18338;SDS011;9295;44.484;11.240;2022-11-20T11:27:10;67.43;;;37.80;;
18338;SDS011;9295;44.484;11.240;2022-11-20T11:29:44;73.53;;;37.80;;
18338;SDS011;9295;44.484;11.240;2022-11-20T11:32:14;58.70;;;34.20;;
18338;SDS011;9295;44.484;11.240;2022-11-20T11:34:44;60.17;;;35.77;;
18338;SDS011;9295;44.484;11.240;2022-11-20T11:37:25;56.77;;;32.00;;
18338;SDS011;9295;44.484;11.240;2022-11-20T11:40:00;59.63;;;32.70;;
18338;SDS011;9295;44.484;11.240;2022-11-20T11:42:54;52.87;;;31.73;;
18338;SDS011;9295;44.484;11.240;2022-11-20T11:45:27;56.97;;;32.00;;
18338;SDS011;9295;44.484;11.240;2022-11-20T11:47:55;56.00;;;30.13;;
18338;SDS011;9295;44.484;11.240;2022-11-20T11:50:26;56.80;;;29.60;;
18338;SDS011;9295;44.484;11.240;2022-11-20T11:52:58;55.67;;;31.40;;
18338;SDS011;9295;44.484;11.240;2022-11-20T11:55:34;55.00;;;30.93;;
18338;SDS011;9295;44.484;11.240;2022-11-20T11:58:14;58.67;;;34.00;;
18338;SDS011;9295;44.484;11.240;2022-11-20T12:00:56;50.70;;;28.57;;
18338;SDS011;9295;44.484;11.240;2022-11-20T12:03:29;48.73;;;27.93;;
18338;SDS011;9295;44.484;11.240;2022-11-20T12:06:05;55.47;;;26.87;;
18338;SDS011;9295;44.484;11.240;2022-11-20T12:08:40;53.00;;;28.13;;
18338;SDS011;9295;44.484;11.240;2022-11-20T12:11:16;56.63;;;30.40;;
18338;SDS011;9295;44.484;11.240;2022-11-20T12:13:52;50.07;;;26.00;;
18338;SDS011;9295;44.484;11.240;2022-11-20T12:16:24;53.97;;;29.47;;
18338;SDS011;9295;44.484;11.240;2022-11-20T12:18:53;48.83;;;27.27;;
18338;SDS011;9295;44.484;11.240;2022-11-20T12:21:26;46.40;;;25.33;;
18338;SDS011;9295;44.484;11.240;2022-11-20T12:24:15;45.17;;;25.73;;
18338;SDS011;9295;44.484;11.240;2022-11-20T12:27:03;45.00;;;26.00;;
18338;SDS011;9295;44.484;11.240;2022-11-20T12:29:48;44.63;;;24.97;;
18338;SDS011;9295;44.484;11.240;2022-11-20T12:32:41;41.50;;;24.57;;
18338;SDS011;9295;44.484;11.240;2022-11-20T12:35:25;40.43;;;22.20;;
18338;SDS011;9295;44.484;11.240;2022-11-20T12:38:09;38.50;;;22.17;;
18338;SDS011;9295;44.484;11.240;2022-11-20T12:41:08;36.30;;;21.57;;
18338;SDS011;9295;44.484;11.240;2022-11-20T12:44:05;49.33;;;27.40;;
18338;SDS011;9295;44.484;11.240;2022-11-20T12:47:04;47.77;;;29.33;;
18338;SDS011;9295;44.484;11.240;2022-11-20T12:49:42;53.47;;;29.03;;
18338;SDS011;9295;44.484;11.240;2022-11-20T12:52:19;50.30;;;26.50;;
18338;SDS011;9295;44.484;11.240;2022-11-20T12:58:11;47.67;;;24.30;;
18338;SDS011;9295;44.484;11.240;2022-11-20T13:00:47;35.43;;;20.20;;
18338;SDS011;9295;44.484;11.240;2022-11-20T13:03:27;44.47;;;23.90;;
18338;SDS011;9295;44.484;11.240;2022-11-20T13:06:09;46.03;;;22.70;;
18338;SDS011;9295;44.484;11.240;2022-11-20T13:08:41;43.30;;;23.53;;
18338;SDS011;9295;44.484;11.240;2022-11-20T13:11:14;35.43;;;21.30;;
18338;SDS011;9295;44.484;11.240;2022-11-20T13:13:55;39.23;;;20.57;;
18338;SDS011;9295;44.484;11.240;2022-11-20T13:16:48;37.73;;;22.20;;
18338;SDS011;9295;44.484;11.240;2022-11-20T13:19:21;38.40;;;20.30;;
18338;SDS011;9295;44.484;11.240;2022-11-20T13:21:51;31.00;;;19.43;;
18338;SDS011;9295;44.484;11.240;2022-11-20T13:24:21;32.07;;;19.67;;
18338;SDS011;9295;44.484;11.240;2022-11-20T13:27:01;35.33;;;20.03;;
18338;SDS011;9295;44.484;11.240;2022-11-20T13:29:31;35.57;;;19.53;;
18338;SDS011;9295;44.484;11.240;2022-11-20T13:32:04;39.73;;;21.20;;
18338;SDS011;9295;44.484;11.240;2022-11-20T13:34:34;33.30;;;19.47;;
18338;SDS011;9295;44.484;11.240;2022-11-20T13:37:05;31.97;;;19.47;;
18338;SDS011;9295;44.484;11.240;2022-11-20T13:39:34;36.50;;;21.07;;
18338;SDS011;9295;44.484;11.240;2022-11-20T13:42:20;39.57;;;20.33;;
18338;SDS011;9295;44.484;11.240;2022-11-20T13:44:55;38.43;;;21.30;;
18338;SDS011;9295;44.484;11.240;2022-11-20T13:47:36;37.47;;;20.50;;
18338;SDS011;9295;44.484;11.240;2022-11-20T13:50:04;42.80;;;22.00;;
18338;SDS011;9295;44.484;11.240;2022-11-20T13:52:42;46.63;;;20.30;;
18338;SDS011;9295;44.484;11.240;2022-11-20T13:55:19;35.23;;;19.67;;
18338;SDS011;9295;44.484;11.240;2022-11-20T13:57:59;32.33;;;19.13;;
18338;SDS011;9295;44.484;11.240;2022-11-20T14:00:41;31.23;;;17.60;;
18338;SDS011;9295;44.484;11.240;2022-11-20T14:03:15;28.07;;;15.20;;
18338;SDS011;9295;44.484;11.240;2022-11-20T14:06:10;32.27;;;16.40;;
18338;SDS011;9295;44.484;11.240;2022-11-20T14:08:44;34.67;;;17.70;;
18338;SDS011;9295;44.484;11.240;2022-11-20T14:11:15;29.53;;;15.23;;
18338;SDS011;9295;44.484;11.240;2022-11-20T14:13:55;28.57;;;15.63;;
18338;SDS011;9295;44.484;11.240;2022-11-20T14:16:26;26.10;;;13.63;;
18338;SDS011;9295;44.484;11.240;2022-11-20T14:18:57;31.93;;;15.53;;
18338;SDS011;9295;44.484;11.240;2022-11-20T14:21:47;21.93;;;13.47;;
18338;SDS011;9295;44.484;11.240;2022-11-20T14:24:19;29.07;;;16.73;;
18338;SDS011;9295;44.484;11.240;2022-11-20T14:26:49;26.03;;;16.00;;
18338;SDS011;9295;44.484;11.240;2022-11-20T14:29:19;23.00;;;13.63;;
18338;SDS011;9295;44.484;11.240;2022-11-20T14:31:51;24.10;;;14.60;;
18338;SDS011;9295;44.484;11.240;2022-11-20T14:34:22;29.50;;;15.53;;
18338;SDS011;9295;44.484;11.240;2022-11-20T14:36:59;28.63;;;13.90;;
18338;SDS011;9295;44.484;11.240;2022-11-20T14:39:32;26.20;;;14.17;;
18338;SDS011;9295;44.484;11.240;2022-11-20T14:42:03;22.60;;;13.30;;
18338;SDS011;9295;44.484;11.240;2022-11-20T14:44:42;21.30;;;11.43;;
18338;SDS011;9295;44.484;11.240;2022-11-20T14:47:12;22.73;;;11.50;;
18338;SDS011;9295;44.484;11.240;2022-11-20T14:49:42;21.60;;;12.67;;
18338;SDS011;9295;44.484;11.240;2022-11-20T14:52:13;21.87;;;12.43;;
18338;SDS011;9295;44.484;11.240;2022-11-20T14:54:45;18.80;;;10.43;;